aviador You're here:

LDZA Decoded Metar

ZAGREB in CROATIA
Report Time2018-06-23 12:00:00
UTC Time2018-06-23 12:14:22
Flight Rules vfr VFR
Wind220° at 04 kt
W.Decomp.*RWY 23: 3.9 kt HW 0.8 kt LCW
W.Rank220° ranks 6
Current wind is below 220° avg. (5.1)
Visibility9999 m
Phenomena:N/A
Clouds:N/A
Expected CloudBase > 4,400 ft AGL from Temp-Dew spread
CeilingNone
Temp20°C (ISA +6)
Dew Point09°C (49% RH)
AAT18.3°C
QNH1021 hPa
Density Alt906 ft
Elevation351 ft
Report Wrong Elevation
Raw Report
LDZA 231200Z 22004KT 130V280 CAVOK 20/09 Q1021 NOSIG=

Extra information for LDZA:More info

Metar Taf Metar & Taf Last 4 Metars F.Rules Stats Wind Profile Meteogram Temp Stats Airport Information Weather charts Add Link Nearby VenuesMetar ALERT Operation Metar Decoded Social comments